Time;durP1;ratioP1;P1;durP2;ratioP2;P2;SDS_P1;SDS_P2;PMS_P1;PMS_P2;Temp;Humidity;BMP_temperature;BMP_pressure;BME280_temperature;BME280_humidity;BME280_pressure;Samples;Min_cycle;Max_cycle;Signal;HPM_P1;HPM_P2
2022/07/19 00:01:23;;;;;;;13.13;5.78;;;;;;;22.66;100.00;101729.03;4956817;29;20038;-72
2022/07/19 00:04:09;;;;;;;11.85;5.88;;;;;;;22.49;100.00;101727.25;4957408;28;20023;-72
2022/07/19 00:06:55;;;;;;;15.57;6.03;;;;;;;22.39;100.00;101727.75;4956886;29;20402;-72
2022/07/19 00:09:41;;;;;;;14.05;6.85;;;;;;;22.30;100.00;101725.56;4957132;29;20035;-72
2022/07/19 00:12:27;;;;;;;17.95;6.22;;;;;;;22.36;100.00;101723.44;4956588;29;20027;-72
2022/07/19 00:15:15;;;;;;;17.15;6.90;;;;;;;22.33;100.00;101720.91;4957263;28;20027;-73
2022/07/19 00:18:00;;;;;;;14.95;6.68;;;;;;;22.08;100.00;101719.53;4957512;29;20513;-72
2022/07/19 00:20:46;;;;;;;11.10;6.25;;;;;;;22.03;100.00;101729.56;4956341;29;20049;-73
2022/07/19 00:23:32;;;;;;;14.55;6.22;;;;;;;21.96;100.00;101726.34;4957076;28;20446;-73
2022/07/19 00:26:18;;;;;;;10.15;5.97;;;;;;;22.12;100.00;101719.31;4956317;29;20070;-72
2022/07/19 00:29:04;;;;;;;11.55;6.18;;;;;;;22.24;100.00;101717.84;4957363;29;20399;-72
2022/07/19 00:31:50;;;;;;;11.18;5.97;;;;;;;22.08;100.00;101714.19;4943298;29;20119;-72
2022/07/19 00:34:35;;;;;;;14.07;5.63;;;;;;;21.90;100.00;101718.63;4957101;28;20035;-73
2022/07/19 00:37:21;;;;;;;12.02;5.00;;;;;;;21.61;100.00;101720.91;4956123;29;20421;-72
2022/07/19 00:40:08;;;;;;;9.93;5.35;;;;;;;21.83;98.31;101716.31;4943205;29;20369;-73
2022/07/19 00:42:55;;;;;;;7.20;4.25;;;;;;;21.83;96.43;101717.16;4956312;29;20135;-72
2022/07/19 00:45:40;;;;;;;10.10;4.43;;;;;;;21.76;95.46;101721.09;4957358;29;20051;-72
2022/07/19 00:48:26;;;;;;;6.50;4.05;;;;;;;21.88;94.78;101723.19;4956143;29;20031;-73
2022/07/19 00:51:14;;;;;;;9.27;4.40;;;;;;;21.57;97.40;101720.19;4956018;29;20375;-72
2022/07/19 00:54:01;;;;;;;7.85;4.80;;;;;;;21.61;98.59;101716.44;4956264;28;20418;-72
2022/07/19 00:56:49;;;;;;;9.13;4.20;;;;;;;21.37;99.20;101714.91;4956042;29;20038;-73
2022/07/19 00:59:35;;;;;;;10.27;4.57;;;;;;;21.79;98.13;101726.25;4957100;29;20106;-72
2022/07/19 01:02:22;;;;;;;6.68;4.32;;;;;;;21.03;100.00;101730.72;4956551;28;20038;-71
2022/07/19 01:05:10;;;;;;;8.65;4.43;;;;;;;21.14;100.00;101725.75;4942816;29;20469;-72
2022/07/19 01:07:56;;;;;;;9.32;4.78;;;;;;;21.41;100.00;101716.50;4956612;29;20038;-73
2022/07/19 01:10:42;;;;;;;9.98;4.18;;;;;;;21.26;100.00;101717.19;4956693;29;20035;-73
2022/07/19 01:13:28;;;;;;;8.98;4.60;;;;;;;21.18;100.00;101714.00;4955753;28;20050;-72
2022/07/19 01:16:13;;;;;;;12.10;4.78;;;;;;;21.21;100.00;101713.88;4956593;29;20120;-72
2022/07/19 01:18:59;;;;;;;8.50;4.60;;;;;;;21.24;100.00;101712.88;4956346;29;20034;-73
2022/07/19 01:21:45;;;;;;;10.77;5.22;;;;;;;21.68;100.00;101706.34;4956520;29;20027;-72
2022/07/19 01:24:31;;;;;;;8.45;4.63;;;;;;;21.25;100.00;101711.94;4956504;28;20102;-72
2022/07/19 01:27:16;;;;;;;9.52;4.88;;;;;;;21.38;100.00;101705.97;4955584;29;20079;-73
2022/07/19 01:30:09;;;;;;;11.55;4.97;;;;;;;21.36;100.00;101707.84;4956306;29;20023;-72
2022/07/19 01:32:56;;;;;;;8.70;4.82;;;;;;;21.21;100.00;101710.34;4956051;29;20494;-72
2022/07/19 01:35:42;;;;;;;9.10;4.60;;;;;;;21.47;100.00;101708.22;4955238;29;20054;-73
2022/07/19 01:38:27;;;;;;;6.53;4.10;;;;;;;21.21;100.00;101716.53;4955679;29;20059;-72
2022/07/19 01:41:13;;;;;;;8.48;3.97;;;;;;;21.45;100.00;101712.75;4942824;29;20477;-72
2022/07/19 01:43:59;;;;;;;10.75;3.63;;;;;;;21.26;100.00;101709.19;4955427;28;20039;-72
2022/07/19 01:46:44;;;;;;;6.07;3.10;;;;;;;21.07;100.00;101710.13;4955846;29;20027;-71
2022/07/19 01:49:30;;;;;;;5.00;2.58;;;;;;;21.21;100.00;101711.22;4955323;29;20039;-72
2022/07/19 01:52:16;;;;;;;4.75;2.63;;;;;;;21.18;100.00;101716.69;4942432;29;20027;-72
2022/07/19 01:55:03;;;;;;;3.85;2.20;;;;;;;21.08;100.00;101717.16;4956389;28;20110;-72
2022/07/19 01:57:49;;;;;;;4.53;2.40;;;;;;;21.12;100.00;101718.75;4942345;29;20450;-71
2022/07/19 02:00:35;;;;;;;5.70;2.70;;;;;;;21.04;100.00;101719.13;4954783;29;20038;-72
2022/07/19 02:03:21;;;;;;;6.88;2.53;;;;;;;20.82;100.00;101723.59;4955442;28;20055;-72
2022/07/19 02:06:07;;;;;;;4.95;2.50;;;;;;;20.45;100.00;101718.13;4956131;29;20038;-71
2022/07/19 02:08:52;;;;;;;3.45;2.30;;;;;;;20.43;100.00;101724.47;4955201;29;20046;-73
2022/07/19 02:11:38;;;;;;;3.58;2.25;;;;;;;20.65;100.00;101714.66;4941615;29;20438;-73
2022/07/19 02:14:24;;;;;;;4.82;2.40;;;;;;;20.76;100.00;101721.22;4956957;28;20373;-73
2022/07/19 02:17:10;;;;;;;4.55;2.38;;;;;;;20.65;100.00;101719.97;4958911;29;20118;-72
2022/07/19 02:19:55;;;;;;;5.03;2.40;;;;;;;20.67;100.00;101718.97;4958823;29;20067;-72
2022/07/19 02:22:41;;;;;;;5.60;1.90;;;;;;;20.62;100.00;101718.28;4958167;29;20476;-72
2022/07/19 02:25:27;;;;;;;3.33;2.20;;;;;;;20.63;100.00;101721.81;4958854;28;20042;-72
2022/07/19 02:28:13;;;;;;;6.53;2.55;;;;;;;20.36;100.00;101721.19;4959397;29;20046;-72
2022/07/19 02:30:59;;;;;;;8.73;3.13;;;;;;;20.44;100.00;101719.06;4958660;29;20031;-72
2022/07/19 02:33:45;;;;;;;10.50;3.33;;;;;;;20.56;100.00;101715.88;4959537;28;20469;-72
2022/07/19 02:36:30;;;;;;;6.82;3.20;;;;;;;20.33;100.00;101718.66;4958534;29;20079;-72
2022/07/19 02:39:16;;;;;;;6.50;3.13;;;;;;;20.53;100.00;101715.16;4959238;29;20062;-72
2022/07/19 02:42:02;;;;;;;10.00;4.05;;;;;;;20.29;100.00;101709.06;4957740;29;20113;-72
2022/07/19 02:44:48;;;;;;;5.05;2.42;;;;;;;20.69;100.00;101719.75;4958355;28;20422;-72
2022/07/19 02:47:34;;;;;;;5.07;2.20;;;;;;;20.48;100.00;101722.47;4945253;29;20055;-72
2022/07/19 02:50:19;;;;;;;3.85;2.53;;;;;;;20.24;100.00;101716.38;4958572;29;20023;-73
2022/07/19 02:53:05;;;;;;;6.57;2.40;;;;;;;20.29;100.00;101726.84;4958510;29;20055;-72
2022/07/19 02:55:51;;;;;;;8.50;2.63;;;;;;;20.51;100.00;101733.00;4958582;29;20525;-72
2022/07/19 02:58:37;;;;;;;4.55;2.38;;;;;;;20.40;100.00;101730.78;4958509;29;20122;-72
2022/07/19 03:01:22;;;;;;;3.70;2.35;;;;;;;20.33;100.00;101733.78;4958574;29;20027;-72
2022/07/19 03:04:08;;;;;;;7.88;3.70;;;;;;;20.61;100.00;101726.34;4958047;28;20161;-72
2022/07/19 03:06:54;;;;;;;19.60;8.30;;;;;;;20.54;100.00;101732.88;4957889;29;20366;-72
2022/07/19 03:09:40;;;;;;;29.70;11.48;;;;;;;20.94;100.00;101733.75;4957573;29;20042;-72
2022/07/19 03:12:26;;;;;;;31.10;11.48;;;;;;;20.90;100.00;101736.63;4944874;29;20121;-72
2022/07/19 03:15:12;;;;;;;32.55;11.93;;;;;;;20.80;100.00;101738.81;4958596;28;20031;-71
2022/07/19 03:17:58;;;;;;;114.93;39.50;;;;;;;20.63;100.00;101737.78;4958102;29;20032;-72
2022/07/19 03:20:44;;;;;;;153.05;51.75;;;;;;;20.64;100.00;101740.41;4945005;29;20465;-72
2022/07/19 03:23:31;;;;;;;172.45;53.25;;;;;;;20.54;100.00;101746.19;4957643;28;20034;-72
2022/07/19 03:26:17;;;;;;;151.90;48.83;;;;;;;20.66;100.00;101751.00;4956702;28;20401;-72
2022/07/19 03:29:03;;;;;;;141.80;44.97;;;;;;;20.54;100.00;101748.84;4957720;29;20042;-71
2022/07/19 03:31:49;;;;;;;145.35;45.92;;;;;;;20.19;100.00;101752.09;4956633;29;20496;-72
2022/07/19 03:34:34;;;;;;;120.60;40.38;;;;;;;20.30;100.00;101745.41;4958187;28;20023;-72
2022/07/19 03:37:20;;;;;;;115.78;39.90;;;;;;;20.22;100.00;101758.16;4957702;29;20070;-72
2022/07/19 03:40:07;;;;;;;113.05;37.88;;;;;;;20.23;100.00;101757.22;4957990;29;20035;-72
2022/07/19 03:42:53;;;;;;;113.85;36.58;;;;;;;20.40;100.00;101756.53;4957249;29;20034;-72
2022/07/19 03:45:39;;;;;;;98.07;34.35;;;;;;;20.50;100.00;101763.22;4958023;29;20031;-72
2022/07/19 03:48:24;;;;;;;100.47;35.67;;;;;;;20.38;100.00;101764.59;4957799;29;20023;-71
2022/07/19 03:51:11;;;;;;;104.95;32.30;;;;;;;20.41;100.00;101769.78;4943893;29;20027;-72
2022/07/19 03:53:56;;;;;;;89.75;32.70;;;;;;;20.53;100.00;101763.94;4957149;28;20445;-72
2022/07/19 03:56:42;;;;;;;72.78;26.10;;;;;;;20.52;100.00;101769.31;4956856;29;20019;-72
2022/07/19 03:59:28;;;;;;;59.83;23.55;;;;;;;20.70;100.00;101776.56;4957518;29;20024;-71
2022/07/19 04:02:14;;;;;;;55.95;21.13;;;;;;;20.80;100.00;101773.44;4955642;29;20027;-72
2022/07/19 04:04:59;;;;;;;42.58;16.23;;;;;;;20.56;100.00;101781.59;4956960;28;20374;-71
2022/07/19 04:07:45;;;;;;;26.52;11.55;;;;;;;20.69;100.00;101780.16;4957273;29;20023;-72
2022/07/19 04:10:31;;;;;;;43.70;16.33;;;;;;;20.69;100.00;101780.16;4956427;29;20038;-72
2022/07/19 04:13:16;;;;;;;66.40;24.67;;;;;;;20.73;100.00;101787.09;4957771;28;20123;-72
2022/07/19 04:16:03;;;;;;;83.95;27.48;;;;;;;20.36;100.00;101784.19;4955938;29;20027;-71
2022/07/19 04:18:49;;;;;;;56.05;21.95;;;;;;;20.26;100.00;101788.19;4956609;29;20027;-73
2022/07/19 04:21:35;;;;;;;51.78;19.58;;;;;;;20.26;100.00;101782.84;4956729;29;20027;-72
2022/07/19 04:24:20;;;;;;;51.10;18.75;;;;;;;20.74;100.00;101789.66;4956578;28;20114;-72
2022/07/19 04:27:06;;;;;;;34.80;14.80;;;;;;;20.71;100.00;101788.94;4956933;29;20059;-72
2022/07/19 04:29:52;;;;;;;36.33;14.68;;;;;;;20.86;100.00;101786.47;4957261;29;20047;-72
2022/07/19 04:32:38;;;;;;;34.83;12.30;;;;;;;20.72;100.00;101788.88;4956714;29;20035;-71
2022/07/19 04:35:23;;;;;;;22.75;10.35;;;;;;;20.80;100.00;101786.75;4956069;28;20374;-72
2022/07/19 04:38:09;;;;;;;23.80;10.07;;;;;;;20.79;100.00;101789.47;4955668;28;20031;-72
2022/07/19 04:40:55;;;;;;;16.30;8.20;;;;;;;20.51;100.00;101789.78;4956643;29;20030;-73
2022/07/19 04:43:41;;;;;;;24.98;8.98;;;;;;;20.88;100.00;101792.63;4956652;28;20030;-72
2022/07/19 04:46:27;;;;;;;15.48;6.32;;;;;;;21.08;100.00;101791.78;4956881;29;20523;-73
2022/07/19 04:49:12;;;;;;;15.50;7.82;;;;;;;21.37;100.00;101789.56;4956133;29;20461;-73
2022/07/19 04:51:58;;;;;;;11.35;5.20;;;;;;;21.14;100.00;101794.19;4957131;29;20031;-74
2022/07/19 04:54:44;;;;;;;6.10;3.40;;;;;;;20.89;100.00;101799.69;4955560;28;20035;-74
2022/07/19 04:57:30;;;;;;;12.25;3.90;;;;;;;21.47;100.00;101788.25;4956260;29;20112;-72
2022/07/19 05:00:16;;;;;;;14.23;5.00;;;;;;;21.69;100.00;101788.97;4956234;29;20035;-72
2022/07/19 05:03:02;;;;;;;12.82;5.05;;;;;;;21.51;100.00;101797.84;4956133;29;20063;-73
2022/07/19 05:05:48;;;;;;;16.23;4.97;;;;;;;21.59;100.00;101798.34;4956472;29;20028;-73
2022/07/19 05:08:34;;;;;;;14.70;5.03;;;;;;;21.99;100.00;101798.22;4956147;29;20354;-73
2022/07/19 05:11:20;;;;;;;15.15;4.97;;;;;;;21.82;100.00;101797.31;4942882;29;20050;-73
2022/07/19 05:14:05;;;;;;;40.55;22.73;;;;;;;22.10;100.00;101795.94;4955167;28;20038;-73
2022/07/19 05:16:51;;;;;;;17.15;6.05;;;;;;;22.43;92.48;101799.63;4956274;29;20031;-73
2022/07/19 05:19:37;;;;;;;13.35;5.00;;;;;;;22.50;91.81;101793.09;4955984;29;20067;-73
2022/07/19 05:22:24;;;;;;;16.45;4.97;;;;;;;22.61;88.75;101796.09;4955704;29;20133;-73
2022/07/19 05:25:10;;;;;;;17.88;5.13;;;;;;;22.51;86.75;101786.78;4941802;29;20074;-72
2022/07/19 05:27:56;;;;;;;14.63;5.07;;;;;;;22.80;86.95;101799.56;4956039;29;20051;-74
2022/07/19 05:30:43;;;;;;;15.13;4.90;;;;;;;22.82;85.17;101796.78;4956344;29;20031;-73
2022/07/19 05:33:29;;;;;;;19.42;5.55;;;;;;;22.60;87.50;101786.34;4955263;28;20035;-73
2022/07/19 05:36:15;;;;;;;30.83;7.45;;;;;;;22.93;83.87;101784.63;4955519;29;20035;-73
2022/07/19 05:39:01;;;;;;;16.80;6.20;;;;;;;23.29;91.32;101801.47;4955848;29;20034;-73
2022/07/19 05:41:47;;;;;;;15.77;5.60;;;;;;;22.97;95.09;101791.56;4956272;29;20066;-73
2022/07/19 05:44:33;;;;;;;17.52;5.65;;;;;;;23.31;95.13;101799.56;4955676;28;20566;-73
2022/07/19 05:47:19;;;;;;;21.45;6.72;;;;;;;23.51;84.94;101792.28;4955997;29;20089;-73
2022/07/19 05:50:05;;;;;;;22.25;6.47;;;;;;;23.55;77.97;101786.72;4958292;28;20500;-73
2022/07/19 05:52:51;;;;;;;23.48;5.68;;;;;;;23.46;76.95;101792.53;4946000;29;20385;-72
2022/07/19 05:55:38;;;;;;;14.45;4.28;;;;;;;23.38;76.70;101793.91;4959891;29;20027;-74
2022/07/19 05:58:24;;;;;;;11.43;4.25;;;;;;;23.80;72.17;101787.09;4959863;29;20038;-73
2022/07/19 06:01:19;;;;;;;19.30;4.72;;;;;;;23.74;73.38;101783.88;4959325;29;20351;-72
2022/07/19 06:04:04;;;;;;;12.07;4.47;;;;;;;23.73;72.00;101788.38;4959595;28;20031;-73
2022/07/19 06:06:50;;;;;;;13.48;5.05;;;;;;;24.00;72.49;101783.31;4959061;29;20365;-72
2022/07/19 06:09:36;;;;;;;12.75;4.90;;;;;;;23.79;71.57;101782.66;4960116;29;20085;-73
2022/07/19 06:12:22;;;;;;;18.98;5.15;;;;;;;24.41;71.04;101789.88;4958923;29;20086;-72
2022/07/19 06:15:08;;;;;;;14.45;5.10;;;;;;;24.58;72.45;101789.75;4958334;28;20023;-72
2022/07/19 06:17:54;;;;;;;20.15;5.50;;;;;;;24.45;70.85;101784.25;4959215;29;20358;-73
2022/07/19 06:20:40;;;;;;;22.85;6.05;;;;;;;24.67;72.29;101791.94;4959454;29;20042;-72
2022/07/19 06:23:25;;;;;;;27.85;7.30;;;;;;;24.64;74.68;101794.81;4958273;28;20046;-73
2022/07/19 06:26:12;;;;;;;23.65;7.40;;;;;;;24.87;74.21;101788.94;4958434;29;20067;-72
2022/07/19 06:28:57;;;;;;;20.88;5.63;;;;;;;24.48;79.95;101785.88;4959170;29;20024;-73
2022/07/19 06:31:43;;;;;;;17.85;5.78;;;;;;;24.82;79.68;101785.66;4958482;29;20085;-72
2022/07/19 06:34:29;;;;;;;18.98;5.82;;;;;;;25.14;77.61;101789.94;4958723;28;20034;-72
2022/07/19 06:37:15;;;;;;;14.57;5.28;;;;;;;25.50;75.91;101799.34;4945009;29;20165;-72
2022/07/19 06:40:00;;;;;;;11.20;4.25;;;;;;;25.20;78.54;101795.81;4958845;29;20042;-75
2022/07/19 06:42:46;;;;;;;18.83;4.95;;;;;;;25.12;79.64;101792.72;4958490;29;20023;-75
2022/07/19 06:45:32;;;;;;;14.18;4.60;;;;;;;25.22;77.59;101796.59;4958680;29;20121;-75
2022/07/19 06:48:18;;;;;;;10.02;4.22;;;;;;;24.84;79.80;101794.50;4959111;29;20034;-75
2022/07/19 06:51:05;;;;;;;14.00;4.75;;;;;;;25.40;77.37;101797.31;4945782;29;20397;-74
2022/07/19 06:53:51;;;;;;;13.20;4.35;;;;;;;25.40;76.19;101802.69;4945204;28;20039;-74
2022/07/19 06:56:37;;;;;;;15.10;4.32;;;;;;;25.01;76.90;101800.56;4958705;29;20047;-74
2022/07/19 06:59:23;;;;;;;15.60;4.30;;;;;;;25.47;74.03;101806.72;4959118;29;20031;-75
2022/07/19 07:02:09;;;;;;;10.43;3.80;;;;;;;25.84;74.42;101795.41;4957155;29;20031;-75
2022/07/19 07:04:55;;;;;;;13.75;4.22;;;;;;;25.64;71.02;101806.53;4959151;28;20029;-74
2022/07/19 07:07:41;;;;;;;15.90;4.55;;;;;;;25.49;72.95;101802.97;4962604;29;20470;-74
2022/07/19 07:10:27;;;;;;;15.65;3.78;;;;;;;25.95;73.18;101798.28;4966520;29;20043;-74
2022/07/19 07:13:13;;;;;;;11.52;3.97;;;;;;;25.97;72.15;101799.94;4969553;28;20038;-74
2022/07/19 07:15:59;;;;;;;12.40;5.15;;;;;;;26.22;67.83;101808.13;4969657;29;20061;-73
2022/07/19 07:18:45;;;;;;;11.90;3.70;;;;;;;26.29;67.75;101800.53;4969417;29;20038;-72
2022/07/19 07:21:34;;;;;;;11.35;3.40;;;;;;;26.34;67.50;101801.06;4967732;29;20096;-74
2022/07/19 07:24:20;;;;;;;13.98;3.67;;;;;;;26.31;67.44;101809.31;4969245;28;20024;-74
2022/07/19 07:27:06;;;;;;;11.23;3.47;;;;;;;26.35;64.82;101803.66;4951057;29;20047;-73
2022/07/19 07:29:52;;;;;;;10.38;3.00;;;;;;;26.39;61.39;101807.88;4962695;29;20034;-74
2022/07/19 07:32:38;;;;;;;7.00;2.95;;;;;;;26.55;63.02;101807.72;4960257;29;20424;-74
2022/07/19 07:35:23;;;;;;;14.65;3.35;;;;;;;26.44;61.50;101803.06;4958648;28;20110;-75
2022/07/19 07:38:09;;;;;;;11.13;3.20;;;;;;;26.90;60.39;101804.44;4957898;29;20122;-74
2022/07/19 07:40:56;;;;;;;9.65;3.40;;;;;;;27.12;60.22;101812.75;4958192;29;20039;-75
2022/07/19 07:43:41;;;;;;;8.43;3.25;;;;;;;27.23;60.65;101809.34;4945326;28;20446;-75
2022/07/19 07:46:27;;;;;;;7.72;3.38;;;;;;;27.40;55.83;101809.91;4959790;29;20028;-74
2022/07/19 07:49:13;;;;;;;10.25;3.72;;;;;;;27.56;54.89;101806.13;4960049;29;20050;-74
2022/07/19 07:51:59;;;;;;;17.58;4.03;;;;;;;27.62;53.37;101803.84;4959613;29;20027;-75
2022/07/19 07:54:44;;;;;;;9.38;3.92;;;;;;;27.90;52.84;101800.06;4957692;28;20373;-74
2022/07/19 07:57:30;;;;;;;11.98;3.42;;;;;;;28.38;51.67;101810.84;4958247;29;20361;-75
2022/07/19 08:00:16;;;;;;;5.55;2.88;;;;;;;28.81;48.69;101808.50;4957106;29;20031;-75
2022/07/19 08:03:02;;;;;;;11.23;3.30;;;;;;;28.23;47.17;101803.88;4957517;29;20041;-74
2022/07/19 08:05:48;;;;;;;8.48;3.58;;;;;;;28.30;49.60;101813.22;4944536;29;20365;-75
2022/07/19 08:08:34;;;;;;;10.23;4.13;;;;;;;28.65;47.18;101803.38;4943368;29;20406;-74
2022/07/19 08:11:21;;;;;;;8.95;3.40;;;;;;;29.16;45.74;101807.53;4957581;28;20031;-74
2022/07/19 08:14:07;;;;;;;9.65;2.42;;;;;;;29.50;43.16;101809.28;4958377;28;20126;-75
2022/07/19 08:16:52;;;;;;;7.10;2.53;;;;;;;29.81;42.44;101803.22;4957109;29;20462;-74
2022/07/19 08:19:38;;;;;;;8.38;3.80;;;;;;;30.22;41.69;101802.59;4957197;29;20050;-74
2022/07/19 08:22:24;;;;;;;4.70;2.55;;;;;;;30.23;38.97;101799.78;4958300;28;20054;-75
2022/07/19 08:25:10;;;;;;;8.57;2.90;;;;;;;30.21;38.83;101804.44;4956655;28;20470;-75
2022/07/19 08:27:56;;;;;;;8.63;2.50;;;;;;;30.38;36.68;101805.75;4957008;29;20039;-75
2022/07/19 08:30:42;;;;;;;7.13;2.83;;;;;;;30.31;37.28;101801.81;4957224;29;20027;-75
2022/07/19 08:33:28;;;;;;;24.83;21.15;;;;;;;30.12;35.46;101804.28;4956780;28;20516;-74
2022/07/19 08:36:16;;;;;;;5.63;2.15;;;;;;;30.50;34.55;101796.63;4943233;29;20106;-74
2022/07/19 08:39:02;;;;;;;5.57;1.92;;;;;;;30.55;34.63;101799.78;4943376;29;20382;-76
2022/07/19 08:41:48;;;;;;;6.80;2.85;;;;;;;30.81;33.92;101807.47;4956231;29;20050;-75
2022/07/19 08:44:38;;;;;;;9.30;2.97;;;;;;;30.81;32.98;101802.06;4956341;28;20114;-75
2022/07/19 08:47:25;;;;;;;6.53;4.15;;;;;;;30.56;32.82;101801.50;4956424;29;20094;-74
2022/07/19 08:50:11;;;;;;;3.08;1.67;;;;;;;30.63;32.62;101802.72;4956709;29;20090;-76
2022/07/19 08:52:58;;;;;;;2.55;1.70;;;;;;;31.29;33.25;101802.41;4956083;29;20089;-74
2022/07/19 08:55:44;;;;;;;2.30;1.77;;;;;;;31.12;32.79;101792.16;4957092;29;20027;-75
2022/07/19 08:58:29;;;;;;;1.63;1.40;;;;;;;30.89;31.91;101794.13;4957324;29;20040;-74
2022/07/19 09:01:15;;;;;;;5.65;4.03;;;;;;;31.01;32.58;101797.63;4956933;29;20031;-74
2022/07/19 09:04:09;;;;;;;7.93;2.75;;;;;;;30.99;33.04;101795.06;4955900;28;20031;-74
2022/07/19 09:06:57;;;;;;;3.55;1.60;;;;;;;31.06;32.13;101793.53;4956589;29;20122;-75
2022/07/19 09:09:42;;;;;;;2.60;1.50;;;;;;;30.80;32.24;101784.09;4957325;29;20051;-74
2022/07/19 09:12:28;;;;;;;4.38;1.50;;;;;;;30.89;32.27;101783.31;4956389;29;20066;-75
2022/07/19 09:15:14;;;;;;;6.07;2.33;;;;;;;31.10;32.66;101781.47;4956675;28;20031;-75
2022/07/19 09:18:27;;;;;;;4.88;1.88;;;;;;;31.34;31.36;101779.38;4956820;28;20028;-75
2022/07/19 09:21:13;;;;;;;2.80;1.67;;;;;;;30.93;31.67;101786.59;4956708;29;20042;-75
2022/07/19 09:24:02;;;;;;;5.25;1.65;;;;;;;31.64;30.87;101781.22;4955574;28;20027;-75
2022/07/19 09:27:06;;;;;;;2.38;1.60;;;;;;;31.42;30.62;101769.72;4942934;29;20051;-75
2022/07/19 09:29:56;;;;;;;6.00;1.85;;;;;;;31.38;31.25;101766.44;4956243;29;20031;-75
2022/07/19 09:32:43;;;;;;;6.35;3.95;;;;;;;30.57;31.75;101771.63;4956047;29;20031;-75
2022/07/19 09:35:50;;;;;;;3.47;2.20;;;;;;;30.83;31.44;101770.28;4955668;28;20031;-75
2022/07/19 09:38:37;;;;;;;2.47;1.77;;;;;;;30.64;31.30;101772.81;4942661;29;20118;-74
2022/07/19 09:41:22;;;;;;;2.97;1.95;;;;;;;30.55;31.32;101767.31;4955913;29;20038;-74
2022/07/19 09:44:08;;;;;;;2.97;1.50;;;;;;;30.53;31.96;101763.88;4955790;28;20031;-75
2022/07/19 09:46:54;;;;;;;5.68;1.50;;;;;;;30.52;31.17;101768.44;4956413;29;20023;-75
2022/07/19 09:49:40;;;;;;;4.53;1.77;;;;;;;30.86;31.79;101761.06;4955795;29;20362;-74
2022/07/19 09:52:26;;;;;;;2.95;1.90;;;;;;;30.93;31.56;101764.94;4955953;29;20027;-75
2022/07/19 09:55:13;;;;;;;2.33;1.77;;;;;;;30.73;31.86;101752.25;4955538;28;20031;-75
2022/07/19 09:58:01;;;;;;;4.35;1.77;;;;;;;30.57;31.20;101754.50;4942105;29;20464;-75
2022/07/19 10:00:47;;;;;;;4.43;1.60;;;;;;;30.82;31.39;101748.78;4955616;29;20035;-74
2022/07/19 10:03:33;;;;;;;2.53;1.70;;;;;;;31.10;30.42;101748.13;4957142;28;20362;-75
2022/07/19 10:06:20;;;;;;;2.00;1.40;;;;;;;31.40;29.89;101745.47;4955418;29;20039;-76
2022/07/19 10:09:09;;;;;;;4.13;1.90;;;;;;;30.78;30.50;101742.75;4955921;29;20023;-74
2022/07/19 10:11:55;;;;;;;4.22;1.83;;;;;;;30.49;30.65;101751.59;4955557;29;20416;-74
2022/07/19 10:14:42;;;;;;;3.38;1.98;;;;;;;30.71;30.21;101741.59;4955755;28;20027;-75
2022/07/19 10:17:39;;;;;;;5.90;1.80;;;;;;;30.81;30.23;101739.78;4942756;29;20401;-74
2022/07/19 10:20:26;;;;;;;2.60;1.75;;;;;;;30.43;30.69;101742.16;4955516;29;20024;-73
2022/07/19 10:23:12;;;;;;;6.93;1.83;;;;;;;29.82;31.05;101731.97;4955559;28;20052;-75
2022/07/19 10:25:58;;;;;;;4.90;1.70;;;;;;;30.32;31.24;101734.09;4955771;29;20462;-74
2022/07/19 10:28:44;;;;;;;2.83;1.90;;;;;;;30.91;30.56;101731.75;4956370;29;20027;-76
2022/07/19 10:31:30;;;;;;;5.90;1.80;;;;;;;30.09;31.00;101726.16;4955308;29;20127;-75
2022/07/19 10:34:22;;;;;;;5.40;2.05;;;;;;;30.74;31.48;101724.22;4956146;28;20027;-74
2022/07/19 10:37:08;;;;;;;3.83;1.88;;;;;;;30.46;31.50;101714.00;4958357;29;20027;-75
2022/07/19 10:39:58;;;;;;;5.80;2.20;;;;;;;30.52;31.71;101711.63;4958806;29;20043;-75
2022/07/19 10:43:03;;;;;;;2.45;1.70;;;;;;;30.63;30.95;101706.16;4958799;29;20059;-75
2022/07/19 10:46:04;;;;;;;6.35;2.17;;;;;;;30.76;31.63;101703.28;4959048;29;20145;-76
2022/07/19 10:48:50;;;;;;;2.88;1.88;;;;;;;30.54;30.91;101700.69;4958378;29;20489;-75
2022/07/19 10:51:36;;;;;;;4.45;1.90;;;;;;;30.57;31.23;101695.84;4959247;29;20035;-75
2022/07/19 10:54:22;;;;;;;5.60;1.83;;;;;;;30.52;31.48;101694.53;4958418;28;20031;-75
2022/07/19 10:57:08;;;;;;;3.28;2.00;;;;;;;30.93;31.87;101700.84;4957953;29;20071;-75
2022/07/19 10:59:55;;;;;;;6.70;2.25;;;;;;;30.97;31.44;101690.59;4959690;29;20035;-75
2022/07/19 11:02:41;;;;;;;4.68;2.00;;;;;;;30.53;31.82;101689.00;4958386;29;20023;-74
2022/07/19 11:05:28;;;;;;;6.18;2.28;;;;;;;30.85;31.65;101694.38;4958524;28;20035;-75
2022/07/19 11:08:14;;;;;;;5.35;2.22;;;;;;;30.52;31.13;101687.28;4958533;29;20050;-76
2022/07/19 11:11:10;;;;;;;4.20;1.85;;;;;;;30.79;31.41;101678.66;4944827;29;20031;-75
2022/07/19 11:13:57;;;;;;;9.30;2.35;;;;;;;30.83;31.57;101672.84;4957925;28;20178;-75
2022/07/19 11:16:43;;;;;;;7.13;2.13;;;;;;;30.49;32.11;101679.41;4958530;29;20090;-75
2022/07/19 11:19:29;;;;;;;5.93;2.20;;;;;;;30.75;31.89;101667.25;4944750;29;20557;-74
2022/07/19 11:22:15;;;;;;;5.05;2.78;;;;;;;31.27;31.57;101660.88;4958033;29;20113;-74
2022/07/19 11:25:01;;;;;;;5.40;2.40;;;;;;;31.76;31.77;101673.56;4957995;28;20036;-75
2022/07/19 11:27:47;;;;;;;3.53;1.90;;;;;;;31.78;31.15;101669.72;4958248;29;20048;-75
2022/07/19 11:30:35;;;;;;;5.32;2.80;;;;;;;31.83;31.72;101664.78;4944369;29;20094;-76
2022/07/19 11:33:21;;;;;;;3.55;2.10;;;;;;;31.53;31.02;101656.66;4958195;28;20031;-75
2022/07/19 11:36:08;;;;;;;3.72;2.50;;;;;;;31.52;31.08;101651.38;4958267;29;20110;-74
2022/07/19 11:38:58;;;;;;;5.78;2.90;;;;;;;31.48;30.80;101656.22;4958250;29;20533;-75
2022/07/19 11:41:44;;;;;;;6.10;3.53;;;;;;;31.85;31.26;101651.09;4958168;29;20030;-75
2022/07/19 11:44:37;;;;;;;4.55;2.22;;;;;;;31.42;30.30;101651.34;4957332;28;20023;-74
2022/07/19 11:47:23;;;;;;;5.05;2.35;;;;;;;31.42;31.65;101643.22;4958177;28;20397;-76
2022/07/19 11:50:10;;;;;;;3.53;2.00;;;;;;;31.22;31.29;101634.16;4957523;29;20042;-74
2022/07/19 11:52:58;;;;;;;4.57;2.10;;;;;;;31.17;31.70;101622.00;4944576;29;20042;-75
2022/07/19 11:55:43;;;;;;;3.80;2.00;;;;;;;32.00;31.45;101638.81;4944803;28;20019;-75
2022/07/19 11:58:30;;;;;;;3.50;2.00;;;;;;;31.65;30.80;101623.03;4958117;28;20449;-75
2022/07/19 12:01:24;;;;;;;5.53;2.20;;;;;;;31.95;30.81;101633.81;4957638;29;20050;-75
2022/07/19 12:04:12;;;;;;;5.55;2.25;;;;;;;32.07;31.10;101629.97;4957678;28;20042;-74
2022/07/19 12:06:59;;;;;;;3.58;2.35;;;;;;;32.27;31.13;101620.84;4958321;28;20397;-75
2022/07/19 12:09:45;;;;;;;3.63;2.40;;;;;;;31.92;30.84;101622.38;4958139;28;20039;-74
2022/07/19 12:12:41;;;;;;;4.90;2.20;;;;;;;32.06;31.36;101621.97;4957051;29;20023;-74
2022/07/19 12:15:49;;;;;;;3.75;2.30;;;;;;;31.86;31.01;101617.53;4957267;28;20031;-75
2022/07/19 12:18:47;;;;;;;3.53;2.05;;;;;;;32.04;30.95;101616.69;4956386;29;20045;-76
2022/07/19 12:21:34;;;;;;;5.40;2.20;;;;;;;32.00;31.47;101607.13;4958307;28;20027;-76
2022/07/19 12:24:25;;;;;;;4.80;2.33;;;;;;;31.98;30.36;101609.13;4956529;28;20031;-75
2022/07/19 12:27:15;;;;;;;4.32;2.20;;;;;;;32.23;31.03;101602.25;4957578;28;20194;-74
2022/07/19 12:30:03;;;;;;;9.05;2.50;;;;;;;31.74;30.35;101595.06;4943183;29;20027;-75
2022/07/19 12:32:49;;;;;;;2.50;1.90;;;;;;;31.83;30.80;101594.28;4944129;29;20390;-75
2022/07/19 12:35:43;;;;;;;5.80;2.80;;;;;;;32.06;30.26;101589.44;4943988;29;20031;-75
2022/07/19 12:38:33;;;;;;;6.25;2.17;;;;;;;31.70;30.01;101590.09;4943889;29;20023;-74
2022/07/19 12:41:19;;;;;;;8.95;2.63;;;;;;;31.93;30.61;101588.88;4943517;29;20365;-74
2022/07/19 12:44:04;;;;;;;4.10;2.53;;;;;;;32.32;30.64;101580.59;4956915;28;20133;-74
2022/07/19 12:46:51;;;;;;;6.25;2.60;;;;;;;32.08;30.43;101582.00;4957451;29;20061;-75